sensor_id;sensor_type;location;lat;lon;timestamp;P1;durP1;ratioP1;P2;durP2;ratioP2
3177;SDS011;38141;42.666;23.344;2023-01-19T00:01:13;22.83;;;4.50;;
3177;SDS011;38141;42.666;23.344;2023-01-19T00:03:39;24.57;;;4.10;;
3177;SDS011;38141;42.666;23.344;2023-01-19T00:06:06;24.93;;;4.43;;
3177;SDS011;38141;42.666;23.344;2023-01-19T00:08:34;26.47;;;4.20;;
3177;SDS011;38141;42.666;23.344;2023-01-19T00:11:01;27.00;;;4.80;;
3177;SDS011;38141;42.666;23.344;2023-01-19T00:13:28;24.13;;;5.00;;
3177;SDS011;38141;42.666;23.344;2023-01-19T00:15:56;28.30;;;5.17;;
3177;SDS011;38141;42.666;23.344;2023-01-19T00:18:23;20.40;;;4.00;;
3177;SDS011;38141;42.666;23.344;2023-01-19T00:20:50;25.50;;;5.00;;
3177;SDS011;38141;42.666;23.344;2023-01-19T00:23:17;20.90;;;4.77;;
3177;SDS011;38141;42.666;23.344;2023-01-19T00:25:45;26.93;;;4.97;;
3177;SDS011;38141;42.666;23.344;2023-01-19T00:28:13;18.70;;;4.00;;
3177;SDS011;38141;42.666;23.344;2023-01-19T00:30:41;30.10;;;5.23;;
3177;SDS011;38141;42.666;23.344;2023-01-19T00:33:10;26.83;;;4.83;;
3177;SDS011;38141;42.666;23.344;2023-01-19T00:35:39;26.07;;;4.97;;
3177;SDS011;38141;42.666;23.344;2023-01-19T00:38:07;17.17;;;4.37;;
3177;SDS011;38141;42.666;23.344;2023-01-19T00:40:34;24.10;;;4.33;;
3177;SDS011;38141;42.666;23.344;2023-01-19T00:43:01;20.63;;;4.40;;
3177;SDS011;38141;42.666;23.344;2023-01-19T00:45:29;32.77;;;4.53;;
3177;SDS011;38141;42.666;23.344;2023-01-19T00:47:56;24.27;;;5.47;;
3177;SDS011;38141;42.666;23.344;2023-01-19T00:50:25;19.37;;;4.80;;
3177;SDS011;38141;42.666;23.344;2023-01-19T00:52:54;21.30;;;4.23;;
3177;SDS011;38141;42.666;23.344;2023-01-19T00:55:21;25.40;;;5.43;;
3177;SDS011;38141;42.666;23.344;2023-01-19T00:57:49;19.07;;;4.73;;
3177;SDS011;38141;42.666;23.344;2023-01-19T01:00:17;25.47;;;5.27;;
3177;SDS011;38141;42.666;23.344;2023-01-19T01:02:46;28.17;;;4.60;;
3177;SDS011;38141;42.666;23.344;2023-01-19T01:05:14;29.40;;;4.70;;
3177;SDS011;38141;42.666;23.344;2023-01-19T01:07:42;21.37;;;5.10;;
3177;SDS011;38141;42.666;23.344;2023-01-19T01:10:10;19.47;;;5.17;;
3177;SDS011;38141;42.666;23.344;2023-01-19T01:12:38;22.03;;;4.53;;
3177;SDS011;38141;42.666;23.344;2023-01-19T01:15:05;17.07;;;4.90;;
3177;SDS011;38141;42.666;23.344;2023-01-19T01:17:34;22.90;;;4.03;;
3177;SDS011;38141;42.666;23.344;2023-01-19T01:20:01;24.60;;;5.80;;
3177;SDS011;38141;42.666;23.344;2023-01-19T01:22:30;20.77;;;4.30;;
3177;SDS011;38141;42.666;23.344;2023-01-19T01:24:58;25.80;;;4.30;;
3177;SDS011;38141;42.666;23.344;2023-01-19T01:27:25;28.37;;;5.10;;
3177;SDS011;38141;42.666;23.344;2023-01-19T01:29:51;20.17;;;4.57;;
3177;SDS011;38141;42.666;23.344;2023-01-19T01:32:18;29.37;;;5.30;;
3177;SDS011;38141;42.666;23.344;2023-01-19T01:34:45;12.73;;;3.80;;
3177;SDS011;38141;42.666;23.344;2023-01-19T01:37:12;14.67;;;3.77;;
3177;SDS011;38141;42.666;23.344;2023-01-19T01:39:39;18.00;;;4.50;;
3177;SDS011;38141;42.666;23.344;2023-01-19T01:42:12;17.83;;;4.27;;
3177;SDS011;38141;42.666;23.344;2023-01-19T01:44:46;25.20;;;4.73;;
3177;SDS011;38141;42.666;23.344;2023-01-19T01:47:19;17.50;;;3.60;;
3177;SDS011;38141;42.666;23.344;2023-01-19T01:49:55;13.93;;;3.50;;
3177;SDS011;38141;42.666;23.344;2023-01-19T01:52:27;19.50;;;3.40;;
3177;SDS011;38141;42.666;23.344;2023-01-19T01:54:56;16.13;;;3.57;;
3177;SDS011;38141;42.666;23.344;2023-01-19T01:57:26;13.60;;;3.60;;
3177;SDS011;38141;42.666;23.344;2023-01-19T01:59:53;15.33;;;5.47;;
3177;SDS011;38141;42.666;23.344;2023-01-19T02:02:23;17.13;;;3.73;;
3177;SDS011;38141;42.666;23.344;2023-01-19T02:05:10;20.43;;;3.57;;
3177;SDS011;38141;42.666;23.344;2023-01-19T02:07:42;15.83;;;3.60;;
3177;SDS011;38141;42.666;23.344;2023-01-19T02:10:32;18.63;;;4.00;;
3177;SDS011;38141;42.666;23.344;2023-01-19T02:13:18;24.07;;;3.43;;
3177;SDS011;38141;42.666;23.344;2023-01-19T02:15:46;24.23;;;5.20;;
3177;SDS011;38141;42.666;23.344;2023-01-19T02:18:14;25.37;;;4.27;;
3177;SDS011;38141;42.666;23.344;2023-01-19T02:20:42;23.23;;;4.30;;
3177;SDS011;38141;42.666;23.344;2023-01-19T02:23:17;25.10;;;4.10;;
3177;SDS011;38141;42.666;23.344;2023-01-19T02:25:50;24.93;;;4.30;;
3177;SDS011;38141;42.666;23.344;2023-01-19T02:28:18;14.83;;;3.57;;
3177;SDS011;38141;42.666;23.344;2023-01-19T02:30:45;20.27;;;3.50;;
3177;SDS011;38141;42.666;23.344;2023-01-19T02:33:12;16.90;;;4.20;;
3177;SDS011;38141;42.666;23.344;2023-01-19T02:35:40;19.27;;;3.40;;
3177;SDS011;38141;42.666;23.344;2023-01-19T02:38:08;19.93;;;4.17;;
3177;SDS011;38141;42.666;23.344;2023-01-19T02:40:37;19.77;;;4.13;;
3177;SDS011;38141;42.666;23.344;2023-01-19T02:43:08;19.20;;;3.73;;
3177;SDS011;38141;42.666;23.344;2023-01-19T02:45:36;17.90;;;4.33;;
3177;SDS011;38141;42.666;23.344;2023-01-19T02:48:04;31.63;;;3.93;;
3177;SDS011;38141;42.666;23.344;2023-01-19T02:50:36;19.33;;;3.60;;
3177;SDS011;38141;42.666;23.344;2023-01-19T02:56:14;19.50;;;4.40;;
3177;SDS011;38141;42.666;23.344;2023-01-19T02:58:55;20.83;;;3.50;;
3177;SDS011;38141;42.666;23.344;2023-01-19T03:01:32;21.10;;;4.40;;
3177;SDS011;38141;42.666;23.344;2023-01-19T03:04:14;22.87;;;3.80;;
3177;SDS011;38141;42.666;23.344;2023-01-19T03:06:50;18.80;;;3.60;;
3177;SDS011;38141;42.666;23.344;2023-01-19T03:09:26;28.63;;;4.30;;
3177;SDS011;38141;42.666;23.344;2023-01-19T03:11:59;24.00;;;4.73;;
3177;SDS011;38141;42.666;23.344;2023-01-19T03:14:31;21.13;;;4.30;;
3177;SDS011;38141;42.666;23.344;2023-01-19T03:17:01;16.23;;;4.00;;
3177;SDS011;38141;42.666;23.344;2023-01-19T03:19:32;23.70;;;4.30;;
3177;SDS011;38141;42.666;23.344;2023-01-19T03:22:02;21.57;;;4.60;;
3177;SDS011;38141;42.666;23.344;2023-01-19T03:24:33;18.97;;;3.40;;
3177;SDS011;38141;42.666;23.344;2023-01-19T03:27:07;16.73;;;3.70;;
3177;SDS011;38141;42.666;23.344;2023-01-19T03:29:39;19.33;;;4.30;;
3177;SDS011;38141;42.666;23.344;2023-01-19T03:32:09;19.77;;;4.53;;
3177;SDS011;38141;42.666;23.344;2023-01-19T03:34:40;21.67;;;4.53;;
3177;SDS011;38141;42.666;23.344;2023-01-19T03:37:10;21.40;;;4.83;;
3177;SDS011;38141;42.666;23.344;2023-01-19T03:39:40;16.30;;;3.43;;
3177;SDS011;38141;42.666;23.344;2023-01-19T03:42:08;20.33;;;4.27;;
3177;SDS011;38141;42.666;23.344;2023-01-19T03:44:41;30.60;;;4.67;;
3177;SDS011;38141;42.666;23.344;2023-01-19T03:47:10;17.40;;;4.00;;
3177;SDS011;38141;42.666;23.344;2023-01-19T03:49:40;28.37;;;5.67;;
3177;SDS011;38141;42.666;23.344;2023-01-19T03:52:10;23.77;;;4.17;;
3177;SDS011;38141;42.666;23.344;2023-01-19T03:54:38;22.27;;;4.40;;
3177;SDS011;38141;42.666;23.344;2023-01-19T03:57:06;20.80;;;5.13;;
3177;SDS011;38141;42.666;23.344;2023-01-19T03:59:34;18.63;;;4.47;;
3177;SDS011;38141;42.666;23.344;2023-01-19T04:02:02;19.30;;;4.57;;
3177;SDS011;38141;42.666;23.344;2023-01-19T04:04:29;22.77;;;5.47;;
3177;SDS011;38141;42.666;23.344;2023-01-19T04:06:56;32.43;;;5.53;;
3177;SDS011;38141;42.666;23.344;2023-01-19T04:12:31;24.83;;;5.13;;
3177;SDS011;38141;42.666;23.344;2023-01-19T04:14:58;30.90;;;5.97;;
3177;SDS011;38141;42.666;23.344;2023-01-19T04:17:26;26.17;;;5.50;;
3177;SDS011;38141;42.666;23.344;2023-01-19T04:19:53;28.87;;;5.47;;
3177;SDS011;38141;42.666;23.344;2023-01-19T04:22:20;27.60;;;6.03;;
3177;SDS011;38141;42.666;23.344;2023-01-19T04:24:47;27.50;;;5.70;;
3177;SDS011;38141;42.666;23.344;2023-01-19T04:27:14;35.07;;;6.17;;
3177;SDS011;38141;42.666;23.344;2023-01-19T04:29:41;32.93;;;6.70;;
3177;SDS011;38141;42.666;23.344;2023-01-19T04:32:08;36.30;;;6.83;;
3177;SDS011;38141;42.666;23.344;2023-01-19T04:34:36;38.60;;;6.87;;
3177;SDS011;38141;42.666;23.344;2023-01-19T04:37:04;36.20;;;5.80;;
3177;SDS011;38141;42.666;23.344;2023-01-19T04:39:32;41.63;;;8.00;;
3177;SDS011;38141;42.666;23.344;2023-01-19T04:41:59;36.97;;;6.40;;
3177;SDS011;38141;42.666;23.344;2023-01-19T04:44:26;42.07;;;6.50;;
3177;SDS011;38141;42.666;23.344;2023-01-19T04:46:53;43.33;;;6.87;;
3177;SDS011;38141;42.666;23.344;2023-01-19T04:49:20;52.13;;;10.00;;
3177;SDS011;38141;42.666;23.344;2023-01-19T04:51:48;40.23;;;7.00;;
3177;SDS011;38141;42.666;23.344;2023-01-19T04:54:17;40.70;;;6.87;;
3177;SDS011;38141;42.666;23.344;2023-01-19T04:56:44;29.07;;;6.20;;
3177;SDS011;38141;42.666;23.344;2023-01-19T04:59:11;38.27;;;7.40;;
3177;SDS011;38141;42.666;23.344;2023-01-19T05:01:38;34.60;;;5.13;;
3177;SDS011;38141;42.666;23.344;2023-01-19T05:04:07;31.93;;;6.00;;
3177;SDS011;38141;42.666;23.344;2023-01-19T05:06:37;30.03;;;6.97;;
3177;SDS011;38141;42.666;23.344;2023-01-19T07:56:02;32.97;;;8.07;;
3177;SDS011;38141;42.666;23.344;2023-01-19T07:58:43;29.47;;;6.60;;
3177;SDS011;38141;42.666;23.344;2023-01-19T08:01:15;32.90;;;6.07;;
3177;SDS011;38141;42.666;23.344;2023-01-19T09:39:32;24.48;;;5.28;;
3177;SDS011;38141;42.666;23.344;2023-01-19T09:42:00;27.55;;;5.22;;
3177;SDS011;38141;42.666;23.344;2023-01-19T09:44:41;25.17;;;5.47;;
3177;SDS011;38141;42.666;23.344;2023-01-19T09:47:12;19.65;;;4.53;;
3177;SDS011;38141;42.666;23.344;2023-01-19T09:49:41;28.23;;;4.97;;
3177;SDS011;38141;42.666;23.344;2023-01-19T09:52:15;24.17;;;5.15;;
3177;SDS011;38141;42.666;23.344;2023-01-19T09:54:48;28.08;;;5.70;;
3177;SDS011;38141;42.666;23.344;2023-01-19T09:57:19;15.57;;;4.47;;
3177;SDS011;38141;42.666;23.344;2023-01-19T09:59:49;25.03;;;5.10;;
3177;SDS011;38141;42.666;23.344;2023-01-19T10:02:25;19.17;;;4.70;;
3177;SDS011;38141;42.666;23.344;2023-01-19T10:04:59;19.10;;;4.70;;
3177;SDS011;38141;42.666;23.344;2023-01-19T10:10:27;22.17;;;4.83;;
3177;SDS011;38141;42.666;23.344;2023-01-19T10:12:58;22.07;;;4.87;;
3177;SDS011;38141;42.666;23.344;2023-01-19T10:15:45;31.07;;;4.37;;
3177;SDS011;38141;42.666;23.344;2023-01-19T10:18:36;18.23;;;4.63;;
3177;SDS011;38141;42.666;23.344;2023-01-19T10:21:13;20.93;;;4.43;;
3177;SDS011;38141;42.666;23.344;2023-01-19T10:23:50;13.30;;;3.80;;
3177;SDS011;38141;42.666;23.344;2023-01-19T10:26:23;26.03;;;4.90;;
3177;SDS011;38141;42.666;23.344;2023-01-19T10:29:03;15.23;;;4.00;;
3177;SDS011;38141;42.666;23.344;2023-01-19T10:31:42;14.10;;;3.70;;
3177;SDS011;38141;42.666;23.344;2023-01-19T10:34:12;17.63;;;3.80;;
3177;SDS011;38141;42.666;23.344;2023-01-19T10:42:09;15.97;;;4.37;;
3177;SDS011;38141;42.666;23.344;2023-01-19T10:44:43;17.63;;;3.63;;
3177;SDS011;38141;42.666;23.344;2023-01-19T10:47:13;20.20;;;3.70;;
3177;SDS011;38141;42.666;23.344;2023-01-19T10:49:48;15.43;;;4.10;;
3177;SDS011;38141;42.666;23.344;2023-01-19T10:52:22;15.03;;;3.80;;
3177;SDS011;38141;42.666;23.344;2023-01-19T10:54:59;19.57;;;3.93;;
3177;SDS011;38141;42.666;23.344;2023-01-19T10:57:40;19.70;;;4.40;;
3177;SDS011;38141;42.666;23.344;2023-01-19T11:00:32;14.30;;;3.87;;
3177;SDS011;38141;42.666;23.344;2023-01-19T11:03:03;18.30;;;4.50;;
3177;SDS011;38141;42.666;23.344;2023-01-19T11:05:32;18.83;;;3.90;;
3177;SDS011;38141;42.666;23.344;2023-01-19T11:08:21;20.20;;;3.70;;
3177;SDS011;38141;42.666;23.344;2023-01-19T11:54:39;20.50;;;4.07;;
3177;SDS011;38141;42.666;23.344;2023-01-19T12:00:47;15.67;;;3.30;;
3177;SDS011;38141;42.666;23.344;2023-01-19T12:03:22;12.50;;;3.33;;
3177;SDS011;38141;42.666;23.344;2023-01-19T12:11:19;20.83;;;5.57;;
3177;SDS011;38141;42.666;23.344;2023-01-19T12:13:50;13.47;;;2.70;;
3177;SDS011;38141;42.666;23.344;2023-01-19T12:16:19;16.97;;;4.13;;
3177;SDS011;38141;42.666;23.344;2023-01-19T12:18:48;13.60;;;3.50;;
3177;SDS011;38141;42.666;23.344;2023-01-19T12:21:21;13.50;;;3.60;;
3177;SDS011;38141;42.666;23.344;2023-01-19T12:23:50;14.00;;;3.20;;
3177;SDS011;38141;42.666;23.344;2023-01-19T12:26:29;11.00;;;2.83;;
3177;SDS011;38141;42.666;23.344;2023-01-19T12:29:03;8.30;;;3.47;;
3177;SDS011;38141;42.666;23.344;2023-01-19T12:31:35;16.40;;;3.00;;
3177;SDS011;38141;42.666;23.344;2023-01-19T12:34:38;9.03;;;2.90;;
3177;SDS011;38141;42.666;23.344;2023-01-19T12:40:23;8.93;;;2.70;;
3177;SDS011;38141;42.666;23.344;2023-01-19T12:49:38;11.40;;;3.17;;
3177;SDS011;38141;42.666;23.344;2023-01-19T12:55:37;9.73;;;3.10;;
3177;SDS011;38141;42.666;23.344;2023-01-19T12:58:23;9.10;;;2.87;;
3177;SDS011;38141;42.666;23.344;2023-01-19T13:01:12;7.53;;;3.03;;
3177;SDS011;38141;42.666;23.344;2023-01-19T13:03:57;10.07;;;2.57;;
3177;SDS011;38141;42.666;23.344;2023-01-19T13:09:42;14.93;;;3.53;;
3177;SDS011;38141;42.666;23.344;2023-01-19T13:12:22;7.07;;;2.50;;
3177;SDS011;38141;42.666;23.344;2023-01-19T13:17:54;8.93;;;2.83;;
3177;SDS011;38141;42.666;23.344;2023-01-19T16:37:01;3.37;;;2.10;;
3177;SDS011;38141;42.666;23.344;2023-01-19T16:39:29;9.67;;;2.83;;
3177;SDS011;38141;42.666;23.344;2023-01-19T16:41:57;4.13;;;2.47;;
3177;SDS011;38141;42.666;23.344;2023-01-19T16:44:25;2.93;;;1.50;;
3177;SDS011;38141;42.666;23.344;2023-01-19T16:46:54;7.07;;;1.90;;
3177;SDS011;38141;42.666;23.344;2023-01-19T16:49:22;4.50;;;1.60;;
3177;SDS011;38141;42.666;23.344;2023-01-19T17:03:35;4.57;;;1.90;;
3177;SDS011;38141;42.666;23.344;2023-01-19T17:12:00;5.93;;;1.93;;
3177;SDS011;38141;42.666;23.344;2023-01-19T17:17:13;3.63;;;2.20;;
3177;SDS011;38141;42.666;23.344;2023-01-19T17:31:20;2.63;;;1.80;;
3177;SDS011;38141;42.666;23.344;2023-01-19T17:39:37;3.50;;;2.00;;
3177;SDS011;38141;42.666;23.344;2023-01-19T17:42:37;3.80;;;2.10;;
3177;SDS011;38141;42.666;23.344;2023-01-19T18:20:57;4.30;;;2.57;;
3177;SDS011;38141;42.666;23.344;2023-01-19T18:23:25;9.60;;;6.43;;
3177;SDS011;38141;42.666;23.344;2023-01-19T18:25:56;5.00;;;3.27;;
3177;SDS011;38141;42.666;23.344;2023-01-19T18:28:44;5.20;;;3.00;;
3177;SDS011;38141;42.666;23.344;2023-01-19T18:31:11;6.40;;;3.83;;
3177;SDS011;38141;42.666;23.344;2023-01-19T18:33:40;5.90;;;3.07;;
3177;SDS011;38141;42.666;23.344;2023-01-19T18:36:11;5.70;;;2.67;;
3177;SDS011;38141;42.666;23.344;2023-01-19T18:38:38;5.40;;;2.70;;
3177;SDS011;38141;42.666;23.344;2023-01-19T18:41:13;2.90;;;2.27;;
3177;SDS011;38141;42.666;23.344;2023-01-19T18:43:42;5.97;;;2.37;;
3177;SDS011;38141;42.666;23.344;2023-01-19T18:46:10;6.53;;;3.37;;
3177;SDS011;38141;42.666;23.344;2023-01-19T18:48:52;5.50;;;3.17;;
3177;SDS011;38141;42.666;23.344;2023-01-19T18:54:06;13.33;;;4.50;;
3177;SDS011;38141;42.666;23.344;2023-01-19T18:56:36;5.70;;;2.10;;
3177;SDS011;38141;42.666;23.344;2023-01-19T18:59:03;2.20;;;1.70;;
3177;SDS011;38141;42.666;23.344;2023-01-19T19:01:40;7.97;;;4.83;;
3177;SDS011;38141;42.666;23.344;2023-01-19T19:04:08;6.70;;;2.90;;
3177;SDS011;38141;42.666;23.344;2023-01-19T19:06:48;4.87;;;2.20;;
3177;SDS011;38141;42.666;23.344;2023-01-19T19:09:15;3.80;;;2.70;;
3177;SDS011;38141;42.666;23.344;2023-01-19T19:11:46;1.80;;;1.70;;
3177;SDS011;38141;42.666;23.344;2023-01-19T19:14:14;1.80;;;1.63;;
3177;SDS011;38141;42.666;23.344;2023-01-19T19:16:43;1.67;;;1.30;;
3177;SDS011;38141;42.666;23.344;2023-01-19T19:19:20;1.63;;;1.30;;
3177;SDS011;38141;42.666;23.344;2023-01-19T19:21:50;2.20;;;1.60;;
3177;SDS011;38141;42.666;23.344;2023-01-19T19:24:21;2.53;;;1.77;;
3177;SDS011;38141;42.666;23.344;2023-01-19T19:27:02;2.60;;;1.37;;
3177;SDS011;38141;42.666;23.344;2023-01-19T19:29:38;1.67;;;1.53;;
3177;SDS011;38141;42.666;23.344;2023-01-19T19:32:09;2.70;;;1.90;;
3177;SDS011;38141;42.666;23.344;2023-01-19T19:34:39;2.93;;;2.03;;
3177;SDS011;38141;42.666;23.344;2023-01-19T19:42:28;1.70;;;1.50;;
3177;SDS011;38141;42.666;23.344;2023-01-19T19:44:55;4.63;;;1.60;;
3177;SDS011;38141;42.666;23.344;2023-01-19T19:47:22;1.90;;;1.60;;
3177;SDS011;38141;42.666;23.344;2023-01-19T19:49:49;8.90;;;4.53;;
3177;SDS011;38141;42.666;23.344;2023-01-19T19:52:18;3.20;;;1.80;;
3177;SDS011;38141;42.666;23.344;2023-01-19T19:54:46;3.90;;;2.60;;
3177;SDS011;38141;42.666;23.344;2023-01-19T19:57:16;23.90;;;15.00;;
3177;SDS011;38141;42.666;23.344;2023-01-19T19:59:55;2.17;;;1.77;;
3177;SDS011;38141;42.666;23.344;2023-01-19T20:02:22;2.87;;;1.60;;
3177;SDS011;38141;42.666;23.344;2023-01-19T20:04:49;1.50;;;1.17;;
3177;SDS011;38141;42.666;23.344;2023-01-19T20:07:16;3.20;;;1.90;;
3177;SDS011;38141;42.666;23.344;2023-01-19T20:09:45;3.27;;;1.70;;
3177;SDS011;38141;42.666;23.344;2023-01-19T20:12:16;3.60;;;1.50;;
3177;SDS011;38141;42.666;23.344;2023-01-19T20:14:43;2.83;;;1.40;;
3177;SDS011;38141;42.666;23.344;2023-01-19T20:17:10;1.73;;;1.53;;
3177;SDS011;38141;42.666;23.344;2023-01-19T20:19:51;2.70;;;1.40;;
3177;SDS011;38141;42.666;23.344;2023-01-19T20:22:19;4.43;;;1.97;;
3177;SDS011;38141;42.666;23.344;2023-01-19T20:24:46;3.53;;;1.70;;
3177;SDS011;38141;42.666;23.344;2023-01-19T20:27:21;4.13;;;2.40;;
3177;SDS011;38141;42.666;23.344;2023-01-19T20:29:48;4.23;;;2.90;;
3177;SDS011;38141;42.666;23.344;2023-01-19T20:32:22;2.37;;;1.73;;
3177;SDS011;38141;42.666;23.344;2023-01-19T20:34:50;3.13;;;2.13;;
3177;SDS011;38141;42.666;23.344;2023-01-19T20:37:18;2.50;;;1.93;;
3177;SDS011;38141;42.666;23.344;2023-01-19T20:39:45;3.93;;;1.90;;
3177;SDS011;38141;42.666;23.344;2023-01-19T20:42:13;4.47;;;2.20;;
3177;SDS011;38141;42.666;23.344;2023-01-19T20:44:44;2.70;;;1.73;;
3177;SDS011;38141;42.666;23.344;2023-01-19T20:47:14;3.43;;;2.07;;
3177;SDS011;38141;42.666;23.344;2023-01-19T20:49:41;5.17;;;1.90;;
3177;SDS011;38141;42.666;23.344;2023-01-19T20:52:09;2.30;;;1.80;;
3177;SDS011;38141;42.666;23.344;2023-01-19T20:54:39;5.07;;;2.97;;
3177;SDS011;38141;42.666;23.344;2023-01-19T20:57:16;3.20;;;2.63;;
3177;SDS011;38141;42.666;23.344;2023-01-19T21:02:37;7.43;;;2.67;;
3177;SDS011;38141;42.666;23.344;2023-01-19T21:05:04;7.70;;;2.50;;
3177;SDS011;38141;42.666;23.344;2023-01-19T21:07:34;4.23;;;2.10;;
3177;SDS011;38141;42.666;23.344;2023-01-19T21:10:13;2.87;;;2.37;;
3177;SDS011;38141;42.666;23.344;2023-01-19T21:12:43;3.60;;;2.80;;
3177;SDS011;38141;42.666;23.344;2023-01-19T21:15:15;4.53;;;2.77;;
3177;SDS011;38141;42.666;23.344;2023-01-19T21:20:37;4.97;;;2.60;;
3177;SDS011;38141;42.666;23.344;2023-01-19T21:23:04;6.13;;;2.70;;
3177;SDS011;38141;42.666;23.344;2023-01-19T21:25:46;3.43;;;2.60;;
3177;SDS011;38141;42.666;23.344;2023-01-19T21:28:14;2.73;;;2.23;;
3177;SDS011;38141;42.666;23.344;2023-01-19T21:30:44;3.53;;;2.57;;
3177;SDS011;38141;42.666;23.344;2023-01-19T21:33:14;7.03;;;3.73;;
3177;SDS011;38141;42.666;23.344;2023-01-19T21:38:24;5.07;;;3.70;;
3177;SDS011;38141;42.666;23.344;2023-01-19T21:40:57;4.80;;;2.83;;
3177;SDS011;38141;42.666;23.344;2023-01-19T21:43:24;6.10;;;3.43;;
3177;SDS011;38141;42.666;23.344;2023-01-19T21:45:54;6.87;;;3.60;;
3177;SDS011;38141;42.666;23.344;2023-01-19T21:48:21;4.20;;;3.20;;
3177;SDS011;38141;42.666;23.344;2023-01-19T21:51:09;7.67;;;4.20;;
3177;SDS011;38141;42.666;23.344;2023-01-19T21:53:37;12.10;;;7.13;;
3177;SDS011;38141;42.666;23.344;2023-01-19T21:56:05;24.83;;;13.87;;
3177;SDS011;38141;42.666;23.344;2023-01-19T21:58:32;26.40;;;15.40;;
3177;SDS011;38141;42.666;23.344;2023-01-19T22:01:16;26.30;;;16.53;;
3177;SDS011;38141;42.666;23.344;2023-01-19T22:03:43;22.67;;;13.07;;
3177;SDS011;38141;42.666;23.344;2023-01-19T22:06:11;11.70;;;7.83;;
3177;SDS011;38141;42.666;23.344;2023-01-19T22:08:40;11.23;;;7.60;;
3177;SDS011;38141;42.666;23.344;2023-01-19T22:11:09;7.13;;;5.90;;
3177;SDS011;38141;42.666;23.344;2023-01-19T22:13:38;7.20;;;5.17;;
3177;SDS011;38141;42.666;23.344;2023-01-19T22:16:05;6.30;;;4.50;;
3177;SDS011;38141;42.666;23.344;2023-01-19T22:18:35;6.30;;;3.83;;
3177;SDS011;38141;42.666;23.344;2023-01-19T22:21:07;7.17;;;4.40;;
3177;SDS011;38141;42.666;23.344;2023-01-19T22:23:35;8.00;;;6.10;;
3177;SDS011;38141;42.666;23.344;2023-01-19T22:26:02;8.70;;;6.23;;
3177;SDS011;38141;42.666;23.344;2023-01-19T22:28:30;8.20;;;5.80;;
3177;SDS011;38141;42.666;23.344;2023-01-19T22:31:01;5.73;;;4.43;;
3177;SDS011;38141;42.666;23.344;2023-01-19T22:33:29;4.93;;;4.40;;
3177;SDS011;38141;42.666;23.344;2023-01-19T22:36:08;11.27;;;4.93;;
3177;SDS011;38141;42.666;23.344;2023-01-19T22:38:37;6.50;;;4.90;;
3177;SDS011;38141;42.666;23.344;2023-01-19T22:41:14;9.20;;;4.07;;
3177;SDS011;38141;42.666;23.344;2023-01-19T22:43:42;7.20;;;4.73;;
3177;SDS011;38141;42.666;23.344;2023-01-19T22:46:10;7.90;;;5.50;;
3177;SDS011;38141;42.666;23.344;2023-01-19T22:48:37;8.17;;;6.30;;
3177;SDS011;38141;42.666;23.344;2023-01-19T22:51:05;10.07;;;6.43;;
3177;SDS011;38141;42.666;23.344;2023-01-19T22:53:33;8.40;;;6.50;;
3177;SDS011;38141;42.666;23.344;2023-01-19T22:56:08;13.20;;;6.63;;
3177;SDS011;38141;42.666;23.344;2023-01-19T22:58:36;9.83;;;6.60;;
3177;SDS011;38141;42.666;23.344;2023-01-19T23:01:04;11.43;;;6.40;;
3177;SDS011;38141;42.666;23.344;2023-01-19T23:03:32;8.03;;;4.87;;
3177;SDS011;38141;42.666;23.344;2023-01-19T23:06:01;6.77;;;4.27;;
3177;SDS011;38141;42.666;23.344;2023-01-19T23:08:33;7.03;;;4.73;;
3177;SDS011;38141;42.666;23.344;2023-01-19T23:11:04;16.70;;;7.40;;
3177;SDS011;38141;42.666;23.344;2023-01-19T23:13:31;23.77;;;14.33;;
3177;SDS011;38141;42.666;23.344;2023-01-19T23:15:59;6.27;;;4.30;;
3177;SDS011;38141;42.666;23.344;2023-01-19T23:18:26;5.23;;;3.97;;
3177;SDS011;38141;42.666;23.344;2023-01-19T23:20:54;8.73;;;4.80;;
3177;SDS011;38141;42.666;23.344;2023-01-19T23:23:21;7.50;;;4.20;;
3177;SDS011;38141;42.666;23.344;2023-01-19T23:25:50;5.23;;;4.00;;
3177;SDS011;38141;42.666;23.344;2023-01-19T23:28:17;9.03;;;4.80;;
3177;SDS011;38141;42.666;23.344;2023-01-19T23:30:44;13.03;;;7.87;;
3177;SDS011;38141;42.666;23.344;2023-01-19T23:33:11;10.43;;;5.10;;
3177;SDS011;38141;42.666;23.344;2023-01-19T23:35:38;9.23;;;4.90;;
3177;SDS011;38141;42.666;23.344;2023-01-19T23:38:04;9.40;;;5.00;;
3177;SDS011;38141;42.666;23.344;2023-01-19T23:40:31;8.43;;;5.17;;
3177;SDS011;38141;42.666;23.344;2023-01-19T23:43:01;9.70;;;6.07;;
3177;SDS011;38141;42.666;23.344;2023-01-19T23:45:29;7.60;;;5.37;;
3177;SDS011;38141;42.666;23.344;2023-01-19T23:47:56;7.80;;;5.23;;
3177;SDS011;38141;42.666;23.344;2023-01-19T23:50:23;7.70;;;5.20;;
3177;SDS011;38141;42.666;23.344;2023-01-19T23:52:50;9.07;;;3.90;;
3177;SDS011;38141;42.666;23.344;2023-01-19T23:55:17;5.47;;;3.90;;
3177;SDS011;38141;42.666;23.344;2023-01-19T23:57:43;3.03;;;2.70;;
